createdAt,value
2023-03-23T16:02:31.993Z,2.20
2023-03-23T16:07:28.517Z,2.50
2023-03-23T16:12:24.884Z,2.90
2023-03-23T16:17:21.810Z,2.45
2023-03-23T16:22:18.769Z,2.63
2023-03-23T16:27:15.399Z,3.22
2023-03-23T16:32:11.709Z,2.50
2023-03-23T16:37:10.613Z,3.72
2023-03-23T16:42:06.916Z,3.40
2023-03-23T16:47:03.308Z,3.40
2023-03-23T16:51:59.613Z,3.47
2023-03-23T16:56:55.928Z,3.55
2023-03-23T17:01:52.331Z,3.45
2023-03-23T17:06:48.972Z,2.88
2023-03-23T17:11:45.329Z,2.47
2023-03-23T17:16:41.717Z,2.40
2023-03-23T17:21:38.157Z,2.15
2023-03-23T17:26:35.150Z,2.55
2023-03-23T17:31:31.521Z,2.70
2023-03-23T17:36:28.087Z,2.70
2023-03-23T17:41:24.416Z,2.90
2023-03-23T17:46:20.974Z,3.53
2023-03-23T17:51:17.672Z,2.50
2023-03-23T17:56:14.578Z,2.80
2023-03-23T18:01:11.019Z,2.78
2023-03-23T18:06:08.607Z,3.15
2023-03-23T18:11:05.884Z,2.20
2023-03-23T18:16:03.774Z,2.25
2023-03-23T18:21:03.910Z,2.10
2023-03-23T18:26:00.249Z,2.60
2023-03-23T18:31:04.799Z,2.35
2023-03-23T18:36:01.261Z,2.42
2023-03-23T18:40:57.864Z,2.15
2023-03-23T18:45:56.596Z,2.00
2023-03-23T18:50:55.730Z,2.50
2023-03-23T18:55:52.654Z,2.33
2023-03-23T19:00:49.869Z,2.00
2023-03-23T19:05:47.379Z,2.10
2023-03-23T19:10:43.817Z,2.47
2023-03-23T19:15:41.190Z,2.92
2023-03-23T19:21:09.620Z,3.07
2023-03-23T19:25:54.147Z,2.47
2023-03-23T19:30:54.851Z,2.70
2023-03-23T19:36:06.218Z,2.28
2023-03-23T19:41:06.693Z,2.53
2023-03-23T19:46:04.351Z,3.03
2023-03-23T19:51:00.974Z,2.72
2023-03-23T19:55:57.436Z,3.08
2023-03-23T20:00:55.004Z,2.42
2023-03-23T20:05:51.454Z,2.47
2023-03-23T20:10:47.826Z,2.78
2023-03-23T20:15:44.427Z,1.88
2023-03-23T20:20:41.055Z,2.13
2023-03-23T20:25:37.482Z,2.72
2023-03-23T20:30:33.804Z,1.80
2023-03-23T20:35:30.305Z,2.03
2023-03-23T20:40:26.682Z,2.40
2023-03-23T20:45:24.016Z,2.35
2023-03-23T20:50:20.320Z,2.65
2023-03-23T20:55:16.692Z,2.05
2023-03-23T21:00:16.155Z,2.30
2023-03-23T21:05:12.553Z,1.85
2023-03-23T21:10:08.927Z,1.70
2023-03-23T21:15:06.297Z,1.80
2023-03-23T21:20:07.722Z,1.83
2023-03-23T21:25:04.228Z,2.05
2023-03-23T21:30:01.118Z,1.67
2023-03-23T21:35:02.227Z,1.85
2023-03-23T21:39:58.743Z,1.40
2023-03-23T21:44:56.585Z,1.70
2023-03-23T21:49:52.998Z,1.88
2023-03-23T21:54:49.358Z,1.55
2023-03-23T21:59:46.715Z,2.40
2023-03-23T22:04:43.369Z,1.63
2023-03-23T22:09:44.754Z,2.00
2023-03-23T22:14:41.191Z,1.40
2023-03-23T22:19:39.270Z,1.52
2023-03-23T22:24:35.846Z,1.38
2023-03-23T22:29:32.206Z,2.08
2023-03-23T22:34:28.524Z,1.85
2023-03-23T22:39:25.227Z,1.50
2023-03-23T22:44:21.510Z,1.67
2023-03-23T22:49:18.063Z,2.20
2023-03-23T22:54:14.437Z,1.80
2023-03-23T22:59:12.144Z,1.40
2023-03-23T23:04:08.528Z,1.10
2023-03-23T23:09:05.422Z,1.55
2023-03-23T23:14:02.386Z,1.50
2023-03-23T23:18:59.276Z,1.20
2023-03-23T23:23:55.856Z,1.10
2023-03-23T23:28:52.691Z,1.40
2023-03-23T23:33:49.637Z,1.40
2023-03-23T23:38:46.027Z,1.50
2023-03-23T23:43:42.515Z,0.95
2023-03-23T23:48:38.916Z,1.40
2023-03-23T23:53:35.451Z,1.58
2023-03-23T23:58:31.901Z,1.20
